createdAt,value
2018-03-07T00:02:25.634Z,98476.98
2018-03-07T00:04:53.962Z,98485.84
2018-03-07T00:07:22.324Z,98482.34
2018-03-07T00:09:50.645Z,98482.16
2018-03-07T00:12:18.981Z,98479.30
2018-03-07T00:14:47.328Z,98481.74
2018-03-07T00:17:15.651Z,98477.42
2018-03-07T00:19:43.994Z,98478.23
2018-03-07T00:22:15.182Z,98476.20
2018-03-07T00:24:43.526Z,98482.14
2018-03-07T00:27:11.853Z,98489.20
2018-03-07T00:29:40.197Z,98480.24
2018-03-07T00:32:08.517Z,98475.67
2018-03-07T00:34:36.871Z,98485.36
2018-03-07T00:37:05.198Z,98474.47
2018-03-07T00:39:33.514Z,98475.42
2018-03-07T00:42:01.856Z,98473.17
2018-03-07T00:44:30.184Z,98469.58
2018-03-07T00:46:58.521Z,98470.42
2018-03-07T00:49:26.845Z,98474.56
2018-03-07T00:51:55.190Z,98474.70
2018-03-07T00:54:23.513Z,98475.34
2018-03-07T00:56:51.862Z,98469.14
2018-03-07T00:59:20.186Z,98469.46
2018-03-07T01:01:48.529Z,98459.44
2018-03-07T01:04:16.866Z,98463.61
2018-03-07T01:06:45.205Z,98465.17
2018-03-07T01:09:13.529Z,98458.66
2018-03-07T01:11:41.873Z,98466.12
2018-03-07T01:14:10.197Z,98459.76
2018-03-07T01:16:38.538Z,98458.44
2018-03-07T01:19:06.866Z,98460.00
2018-03-07T01:21:35.226Z,98459.52
2018-03-07T01:24:03.565Z,98454.80
2018-03-07T01:26:31.890Z,98460.06
2018-03-07T01:29:00.239Z,98455.83
2018-03-07T01:31:28.561Z,98448.81
2018-03-07T01:33:56.910Z,98449.19
2018-03-07T01:36:25.233Z,98447.19
2018-03-07T01:38:53.577Z,98450.91
2018-03-07T01:41:21.905Z,98445.08
2018-03-07T01:43:50.246Z,98451.36
2018-03-07T01:46:18.653Z,98450.05
2018-03-07T01:48:46.981Z,98449.55
2018-03-07T01:51:15.621Z,98455.88
2018-03-07T01:53:43.965Z,98458.50
2018-03-07T01:56:12.285Z,98454.04
2018-03-07T01:58:40.627Z,98451.59
2018-03-07T02:01:08.945Z,98447.30
2018-03-07T02:03:37.294Z,98446.62
2018-03-07T02:06:05.620Z,98448.78
2018-03-07T02:08:33.961Z,98450.09
2018-03-07T02:11:02.287Z,98455.16
2018-03-07T02:13:30.701Z,98451.99
2018-03-07T02:15:59.249Z,98459.38
2018-03-07T02:18:27.594Z,98456.59
2018-03-07T02:20:55.923Z,98465.60
2018-03-07T02:23:24.270Z,98466.92
2018-03-07T02:25:52.595Z,98469.13
2018-03-07T02:28:20.937Z,98469.51
2018-03-07T02:30:49.267Z,98468.66
2018-03-07T02:33:17.615Z,98469.80
2018-03-07T02:35:45.938Z,98465.61
2018-03-07T02:38:14.277Z,98465.47
2018-03-07T02:40:42.607Z,98468.94
2018-03-07T02:43:10.947Z,98470.90
2018-03-07T02:45:39.268Z,98474.83
2018-03-07T02:48:07.618Z,98471.98
2018-03-07T02:50:35.943Z,98470.25
2018-03-07T02:53:04.286Z,98466.95
2018-03-07T02:55:32.617Z,98466.52
2018-03-07T02:58:00.962Z,98465.74
2018-03-07T03:00:29.302Z,98464.62
2018-03-07T03:02:57.618Z,98469.41
2018-03-07T03:05:25.954Z,98467.25
2018-03-07T03:07:54.278Z,98466.98
2018-03-07T03:10:22.618Z,98466.10
2018-03-07T03:12:50.941Z,98468.87
2018-03-07T03:15:19.281Z,98467.99
2018-03-07T03:17:47.606Z,98466.98
2018-03-07T03:20:15.948Z,98470.47
2018-03-07T03:22:44.274Z,98470.95
2018-03-07T03:25:12.621Z,98473.62
2018-03-07T03:27:40.945Z,98480.77
2018-03-07T03:30:09.295Z,98477.26
2018-03-07T03:32:37.616Z,98484.32
2018-03-07T03:35:05.971Z,98492.96
2018-03-07T03:37:34.294Z,98485.99
2018-03-07T03:40:02.648Z,98491.14
2018-03-07T03:42:30.957Z,98499.62
2018-03-07T03:44:59.301Z,98495.53
2018-03-07T03:47:27.627Z,98487.91
2018-03-07T03:49:55.973Z,98494.36
2018-03-07T03:52:24.298Z,98495.03
2018-03-07T03:54:52.641Z,98490.45
2018-03-07T03:57:20.961Z,98495.83
2018-03-07T03:59:49.305Z,98488.90
2018-03-07T04:02:17.633Z,98491.16
2018-03-07T04:04:45.984Z,98493.70
2018-03-07T04:07:14.302Z,98493.94
2018-03-07T04:09:42.649Z,98496.31
2018-03-07T04:12:10.970Z,98492.08
2018-03-07T04:14:39.308Z,98483.81
2018-03-07T04:17:07.638Z,98486.63
2018-03-07T04:19:35.981Z,98488.02
2018-03-07T04:22:04.301Z,98489.75
2018-03-07T04:24:32.649Z,98487.64
2018-03-07T04:27:00.973Z,98483.14
2018-03-07T04:29:29.318Z,98489.78
2018-03-07T04:31:57.638Z,98490.31
2018-03-07T04:34:26.008Z,98484.26
2018-03-07T04:36:54.305Z,98484.89
2018-03-07T04:39:22.654Z,98491.70
2018-03-07T04:41:50.974Z,98490.71
2018-03-07T04:44:19.318Z,98487.98
2018-03-07T04:46:47.642Z,98497.86
2018-03-07T04:49:15.991Z,98497.22
2018-03-07T04:51:44.314Z,98494.39
2018-03-07T04:54:12.664Z,98493.54
2018-03-07T04:56:40.989Z,98492.37
2018-03-07T04:59:09.338Z,98494.17
2018-03-07T05:01:37.690Z,98493.52
2018-03-07T05:04:06.010Z,98495.19
2018-03-07T05:06:34.358Z,98495.01
2018-03-07T05:09:02.686Z,98493.65
2018-03-07T05:11:31.032Z,98496.58
2018-03-07T05:13:59.358Z,98504.20
2018-03-07T05:16:27.714Z,98506.95
2018-03-07T05:18:56.038Z,98506.13
2018-03-07T05:21:24.393Z,98507.44
2018-03-07T05:23:52.718Z,98501.86
2018-03-07T05:26:21.065Z,98504.84
2018-03-07T05:28:49.390Z,98506.50
2018-03-07T05:31:17.742Z,98506.15
2018-03-07T05:33:46.065Z,98508.07
2018-03-07T05:36:14.409Z,98514.20
2018-03-07T05:38:42.734Z,98510.58
2018-03-07T05:41:11.130Z,98512.66
2018-03-07T05:43:39.435Z,98516.72
2018-03-07T05:46:07.785Z,98517.55
2018-03-07T05:48:36.111Z,98526.23
2018-03-07T05:51:04.449Z,98523.30
2018-03-07T05:53:32.774Z,98529.63
2018-03-07T05:56:01.113Z,98532.59
2018-03-07T05:58:29.458Z,98536.28
2018-03-07T06:00:57.801Z,98540.32
2018-03-07T06:03:26.121Z,98532.88
2018-03-07T06:05:54.470Z,98543.02
2018-03-07T06:08:22.883Z,98546.03
2018-03-07T06:10:51.239Z,98550.19
2018-03-07T06:13:19.558Z,98543.84
2018-03-07T06:15:48.034Z,98550.08
2018-03-07T06:18:16.757Z,98550.67
2018-03-07T06:20:45.490Z,98554.67
2018-03-07T06:23:14.217Z,98548.89
2018-03-07T06:25:42.949Z,98556.31
2018-03-07T06:28:11.768Z,98559.95
2018-03-07T06:30:40.567Z,98561.11
2018-03-07T06:33:09.240Z,98560.84
2018-03-07T06:35:37.829Z,98566.23
2018-03-07T06:38:07.178Z,98569.67
2018-03-07T06:40:35.965Z,98569.89
2018-03-07T06:43:04.960Z,98570.73
2018-03-07T06:45:33.897Z,98576.78
2018-03-07T06:48:02.520Z,98576.28
2018-03-07T06:50:31.370Z,98572.63
2018-03-07T06:53:00.207Z,98581.92
2018-03-07T06:55:28.996Z,98577.04
2018-03-07T06:57:57.686Z,98581.44
2018-03-07T07:00:26.456Z,98584.13
2018-03-07T07:02:55.135Z,98583.87
2018-03-07T07:05:23.879Z,98588.78
2018-03-07T07:07:52.519Z,98591.13
2018-03-07T07:10:21.115Z,98593.42
2018-03-07T07:12:49.824Z,98601.98
2018-03-07T07:15:18.525Z,98597.66
2018-03-07T07:17:47.314Z,98604.09
2018-03-07T07:20:16.042Z,98612.02
2018-03-07T07:22:44.798Z,98610.58
2018-03-07T07:25:13.497Z,98607.83
2018-03-07T07:27:42.348Z,98616.85
2018-03-07T07:30:11.044Z,98617.09
2018-03-07T07:32:39.862Z,98618.94
2018-03-07T07:35:08.466Z,98629.10
2018-03-07T07:37:37.258Z,98621.03
2018-03-07T07:40:05.891Z,98626.67
2018-03-07T07:42:34.721Z,98632.62
2018-03-07T07:45:03.439Z,98634.95
2018-03-07T07:47:32.176Z,98638.96
2018-03-07T07:50:01.182Z,98637.95
2018-03-07T07:52:29.941Z,98654.64
2018-03-07T07:54:58.649Z,98656.36
2018-03-07T07:57:28.048Z,98655.39
2018-03-07T07:59:56.692Z,98657.16
2018-03-07T08:02:25.571Z,98656.52
2018-03-07T08:04:54.210Z,98653.70
2018-03-07T08:07:22.997Z,98656.18
2018-03-07T08:09:51.659Z,98657.30
2018-03-07T08:12:20.348Z,98654.59
2018-03-07T08:14:49.034Z,98657.91
2018-03-07T08:17:17.815Z,98663.78
2018-03-07T08:19:47.064Z,98662.61
2018-03-07T08:22:15.741Z,98665.27
2018-03-07T08:24:44.634Z,98665.34
2018-03-07T08:27:13.414Z,98674.07
2018-03-07T08:29:42.132Z,98666.43
2018-03-07T08:32:10.910Z,98677.94
2018-03-07T08:34:39.620Z,98674.44
2018-03-07T08:37:09.191Z,98670.52
2018-03-07T08:39:37.928Z,98679.57
2018-03-07T08:42:07.694Z,98683.28
2018-03-07T08:44:36.438Z,98687.50
2018-03-07T08:47:05.307Z,98684.96
2018-03-07T08:49:33.916Z,98691.38
2018-03-07T08:52:02.610Z,98691.92
2018-03-07T08:54:31.318Z,98689.16
2018-03-07T08:56:59.742Z,98683.03
2018-03-07T08:59:28.100Z,98687.55
2018-03-07T09:01:56.427Z,98692.05
2018-03-07T09:04:24.756Z,98701.81
2018-03-07T09:06:53.109Z,98697.27
2018-03-07T09:09:21.442Z,98704.64
2018-03-07T09:11:49.829Z,98698.02
2018-03-07T09:14:18.157Z,98700.55
2018-03-07T09:16:46.562Z,98704.39
2018-03-07T09:19:14.910Z,98700.44
2018-03-07T09:21:43.237Z,98705.28
2018-03-07T09:24:11.594Z,98707.80
2018-03-07T09:26:39.927Z,98708.41
2018-03-07T09:29:08.271Z,98709.56
2018-03-07T09:31:36.597Z,98714.41
2018-03-07T09:34:04.953Z,98713.71
2018-03-07T09:36:33.273Z,98713.39
2018-03-07T09:39:01.618Z,98715.59
2018-03-07T09:41:29.945Z,98717.33
2018-03-07T09:43:58.314Z,98714.98
2018-03-07T09:46:26.637Z,98716.62
2018-03-07T09:48:54.996Z,98716.34
2018-03-07T09:51:23.330Z,98714.41
2018-03-07T09:53:51.689Z,98711.19
2018-03-07T09:56:20.993Z,98715.56
2018-03-07T09:58:49.265Z,98713.77
2018-03-07T10:01:17.589Z,98716.88
2018-03-07T10:03:45.934Z,98711.34
2018-03-07T10:06:14.258Z,98710.56
2018-03-07T10:08:42.610Z,98715.11
2018-03-07T10:11:10.933Z,98716.23
2018-03-07T10:13:39.281Z,98715.28
2018-03-07T10:16:08.516Z,98714.38
2018-03-07T10:18:36.863Z,98714.10
2018-03-07T10:21:05.211Z,98715.48
2018-03-07T10:23:33.537Z,98717.94
2018-03-07T10:26:01.865Z,98719.87
2018-03-07T10:28:30.205Z,98723.57
2018-03-07T10:30:58.530Z,98722.70
2018-03-07T10:33:26.882Z,98721.03
2018-03-07T10:35:55.205Z,98728.59
2018-03-07T10:38:23.613Z,98729.73
2018-03-07T10:40:51.929Z,98731.41
2018-03-07T10:43:20.282Z,98733.55
2018-03-07T10:45:48.609Z,98737.00
2018-03-07T10:48:16.954Z,98735.66
2018-03-07T10:50:45.290Z,98732.73
2018-03-07T10:53:13.641Z,98732.72
2018-03-07T10:55:41.966Z,98735.77
2018-03-07T10:58:10.316Z,98728.50
2018-03-07T11:00:38.642Z,98734.29
2018-03-07T11:03:06.989Z,98732.05
2018-03-07T11:05:35.353Z,98739.89
2018-03-07T11:08:03.745Z,98743.02
2018-03-07T11:10:32.094Z,98740.05
2018-03-07T11:13:00.418Z,98745.97
2018-03-07T11:15:28.761Z,98743.77
2018-03-07T11:17:57.090Z,98745.57
2018-03-07T11:20:26.485Z,98742.63
2018-03-07T11:22:54.815Z,98736.90
2018-03-07T11:25:23.157Z,98733.61
2018-03-07T11:27:51.578Z,98736.27
2018-03-07T11:30:20.099Z,98734.72
2018-03-07T11:32:49.216Z,98740.83
2018-03-07T11:35:17.730Z,98740.49
2018-03-07T11:37:46.182Z,98739.23
2018-03-07T11:40:15.214Z,98736.61
2018-03-07T11:42:43.530Z,98743.39
2018-03-07T11:45:11.879Z,98742.47
2018-03-07T11:47:40.201Z,98744.37
2018-03-07T11:50:08.551Z,98738.95
2018-03-07T11:52:36.889Z,98745.05
2018-03-07T11:55:05.238Z,98747.55
2018-03-07T11:57:33.562Z,98751.87
2018-03-07T12:00:01.914Z,98753.43
2018-03-07T12:02:30.244Z,98756.16
2018-03-07T12:04:58.594Z,98756.69
2018-03-07T12:07:26.921Z,98757.08
2018-03-07T12:09:55.277Z,98748.07
2018-03-07T12:12:23.607Z,98743.03
2018-03-07T12:14:51.953Z,98744.75
2018-03-07T12:17:20.286Z,98747.88
2018-03-07T12:19:48.641Z,98747.48
2018-03-07T12:22:16.965Z,98743.47
2018-03-07T12:24:45.318Z,98739.83
2018-03-07T12:27:13.655Z,98740.88
2018-03-07T12:29:41.994Z,98732.56
2018-03-07T12:32:10.543Z,98731.02
2018-03-07T12:34:38.890Z,98740.45
2018-03-07T12:37:07.218Z,98738.43
2018-03-07T12:39:35.673Z,98738.84
2018-03-07T12:42:04.005Z,98747.51
2018-03-07T12:44:32.408Z,98750.63
2018-03-07T12:47:01.554Z,98751.73
2018-03-07T12:49:29.907Z,98751.83
2018-03-07T12:51:58.240Z,98750.11
2018-03-07T12:54:26.777Z,98747.97
2018-03-07T12:57:00.389Z,98749.98
2018-03-07T12:59:30.217Z,98754.10
2018-03-07T13:01:58.894Z,98753.52
2018-03-07T13:04:27.238Z,98754.02
2018-03-07T13:06:55.598Z,98756.31
2018-03-07T13:09:24.018Z,98756.63
2018-03-07T13:11:52.350Z,98761.89
2018-03-07T13:14:20.719Z,98750.31
2018-03-07T13:16:49.107Z,98753.49
2018-03-07T13:19:17.703Z,98757.13
2018-03-07T13:21:46.087Z,98751.99
2018-03-07T13:24:14.687Z,98749.20
2018-03-07T13:26:43.055Z,98748.34
2018-03-07T13:29:11.388Z,98747.60
2018-03-07T13:31:39.738Z,98748.23
2018-03-07T13:34:08.087Z,98747.09
2018-03-07T13:36:36.457Z,98746.54
2018-03-07T13:39:05.331Z,98744.81
2018-03-07T13:41:33.902Z,98734.91
2018-03-07T13:44:02.314Z,98740.66
2018-03-07T13:46:30.688Z,98737.86
2018-03-07T13:48:59.012Z,98733.72
2018-03-07T13:51:27.358Z,98741.97
2018-03-07T13:53:55.777Z,98745.54
2018-03-07T13:56:24.200Z,98751.10
2018-03-07T13:58:52.502Z,98747.62
2018-03-07T14:01:21.014Z,98748.17
2018-03-07T14:03:50.083Z,98752.77
2018-03-07T14:06:18.445Z,98752.84
2018-03-07T14:08:46.803Z,98752.45
2018-03-07T14:11:15.221Z,98750.55
2018-03-07T14:13:43.555Z,98750.44
2018-03-07T14:16:12.823Z,98753.40
2018-03-07T14:18:41.150Z,98753.61
2018-03-07T14:21:09.498Z,98751.20
2018-03-07T14:23:37.834Z,98753.28
2018-03-07T14:26:06.291Z,98759.62
2018-03-07T14:28:34.606Z,98749.89
2018-03-07T14:31:03.049Z,98752.84
2018-03-07T14:33:31.386Z,98740.31
2018-03-07T14:36:00.310Z,98745.55
2018-03-07T14:38:28.638Z,98749.36
2018-03-07T14:40:57.014Z,98752.31
2018-03-07T14:43:25.366Z,98744.75
2018-03-07T14:45:53.713Z,98745.60
2018-03-07T14:48:22.042Z,98754.14
2018-03-07T14:50:50.398Z,98752.13
2018-03-07T14:53:18.731Z,98747.36
2018-03-07T14:55:47.078Z,98747.48
2018-03-07T14:58:15.414Z,98745.11
2018-03-07T15:00:43.810Z,98742.28
2018-03-07T15:03:12.117Z,98745.30
2018-03-07T15:05:40.473Z,98741.03
2018-03-07T15:08:08.802Z,98745.03
2018-03-07T15:10:37.157Z,98747.01
2018-03-07T15:13:05.477Z,98745.17
2018-03-07T15:15:33.825Z,98750.05
2018-03-07T15:18:02.200Z,98745.92
2018-03-07T15:20:30.554Z,98749.69
2018-03-07T15:22:58.885Z,98750.12
2018-03-07T15:25:27.279Z,98751.51
2018-03-07T15:27:55.609Z,98744.06
2018-03-07T15:30:23.933Z,98752.30
2018-03-07T15:32:52.281Z,98748.45
2018-03-07T15:35:20.610Z,98750.35
2018-03-07T15:37:48.958Z,98756.36
2018-03-07T15:40:17.294Z,98770.03
2018-03-07T15:42:45.642Z,98766.45
2018-03-07T15:45:13.966Z,98765.73
2018-03-07T15:47:42.313Z,98764.28
2018-03-07T15:50:10.643Z,98765.95
2018-03-07T15:52:38.994Z,98768.05
2018-03-07T15:55:07.806Z,98769.86
2018-03-07T15:57:36.162Z,98769.55
2018-03-07T16:00:04.481Z,98762.22
2018-03-07T16:02:32.834Z,98767.69
2018-03-07T16:05:01.168Z,98763.19
2018-03-07T16:07:29.513Z,98762.95
2018-03-07T16:09:57.853Z,98766.41
2018-03-07T16:12:26.258Z,98770.31
2018-03-07T16:14:54.587Z,98774.04
2018-03-07T16:17:22.939Z,98773.33
2018-03-07T16:19:51.269Z,98775.49
2018-03-07T16:22:19.613Z,98777.89
2018-03-07T16:24:47.946Z,98783.93
2018-03-07T16:27:16.302Z,98779.92
2018-03-07T16:29:44.628Z,98788.26
2018-03-07T16:32:12.974Z,98789.83
2018-03-07T16:34:41.310Z,98794.09
2018-03-07T16:37:09.653Z,98790.05
2018-03-07T16:39:37.984Z,98787.08
2018-03-07T16:42:06.330Z,98799.11
2018-03-07T16:44:34.678Z,98799.30
2018-03-07T16:47:03.014Z,98800.51
2018-03-07T16:49:31.678Z,98803.39
2018-03-07T16:52:00.040Z,98798.21
2018-03-07T16:54:28.369Z,98801.77
2018-03-07T16:56:57.670Z,98804.07
2018-03-07T16:59:27.926Z,98803.77
2018-03-07T17:01:56.270Z,98806.51
2018-03-07T17:04:24.597Z,98806.33
2018-03-07T17:06:53.917Z,98808.06
2018-03-07T17:09:22.240Z,98816.61
2018-03-07T17:11:51.190Z,98811.76
2018-03-07T17:14:19.568Z,98815.66
2018-03-07T17:16:47.897Z,98822.28
2018-03-07T17:19:16.233Z,98822.17
2018-03-07T17:21:44.586Z,98829.99
2018-03-07T17:24:12.910Z,98831.04
2018-03-07T17:26:41.267Z,98835.70
2018-03-07T17:29:09.606Z,98835.37
2018-03-07T17:31:37.946Z,98837.30
2018-03-07T17:34:06.285Z,98847.51
2018-03-07T17:36:34.621Z,98843.55
2018-03-07T17:39:02.964Z,98847.98
2018-03-07T17:41:31.290Z,98853.19
2018-03-07T17:43:59.641Z,98860.73
2018-03-07T17:46:27.966Z,98864.66
2018-03-07T17:48:56.309Z,98868.33
2018-03-07T17:51:24.634Z,98870.57
2018-03-07T17:53:52.977Z,98872.61
2018-03-07T17:56:21.311Z,98874.03
2018-03-07T17:58:49.658Z,98875.87
2018-03-07T18:01:17.985Z,98877.84
2018-03-07T18:03:46.334Z,98877.68
2018-03-07T18:06:14.666Z,98884.23
2018-03-07T18:08:43.157Z,98874.78
2018-03-07T18:11:11.481Z,98884.36
2018-03-07T18:13:39.830Z,98882.05
2018-03-07T18:16:09.098Z,98884.85
2018-03-07T18:18:37.530Z,98884.48
2018-03-07T18:21:05.854Z,98880.84
2018-03-07T18:23:34.198Z,98889.25
2018-03-07T18:26:02.525Z,98889.61
2018-03-07T18:28:30.874Z,98889.59
2018-03-07T18:30:59.207Z,98879.33
2018-03-07T18:33:27.631Z,98879.72
2018-03-07T18:35:55.945Z,98884.75
2018-03-07T18:38:24.301Z,98881.20
2018-03-07T18:40:52.631Z,98879.58
2018-03-07T18:43:20.990Z,98878.22
2018-03-07T18:45:49.323Z,98879.87
2018-03-07T18:48:17.691Z,98878.00
2018-03-07T18:50:46.029Z,98877.25
2018-03-07T18:53:14.374Z,98880.86
2018-03-07T18:55:42.707Z,98891.50
2018-03-07T18:58:11.066Z,98880.19
2018-03-07T19:00:39.394Z,98884.47
2018-03-07T19:03:07.747Z,98881.62
2018-03-07T19:05:36.937Z,98881.16
2018-03-07T19:08:05.294Z,98884.34
2018-03-07T19:10:33.618Z,98882.34
2018-03-07T19:13:01.969Z,98886.65
2018-03-07T19:15:30.298Z,98889.45
2018-03-07T19:17:58.671Z,98889.13
2018-03-07T19:20:27.001Z,98892.12
2018-03-07T19:22:55.334Z,98886.57
2018-03-07T19:25:23.696Z,98882.53
2018-03-07T19:27:52.022Z,98884.58
2018-03-07T19:30:20.374Z,98886.73
2018-03-07T19:32:48.710Z,98885.92
2018-03-07T19:35:17.070Z,98891.72
2018-03-07T19:37:45.394Z,98898.34
2018-03-07T19:40:13.741Z,98897.58
2018-03-07T19:42:42.076Z,98892.61
2018-03-07T19:45:10.438Z,98893.63
2018-03-07T19:47:38.761Z,98896.40
2018-03-07T19:50:07.137Z,98900.89
2018-03-07T19:52:35.446Z,98901.33
2018-03-07T19:55:03.797Z,98903.61
2018-03-07T19:57:32.126Z,98905.09
2018-03-07T20:00:00.471Z,98902.70
2018-03-07T20:02:28.814Z,98898.91
2018-03-07T20:04:57.166Z,98903.03
2018-03-07T20:07:26.259Z,98901.70
2018-03-07T20:09:54.607Z,98899.03
2018-03-07T20:12:22.945Z,98899.44
2018-03-07T20:14:51.297Z,98910.32
2018-03-07T20:17:19.634Z,98906.02
2018-03-07T20:19:48.380Z,98921.66
2018-03-07T20:22:16.717Z,98911.02
2018-03-07T20:24:45.070Z,98910.99
2018-03-07T20:27:13.415Z,98917.42
2018-03-07T20:29:41.774Z,98910.72
2018-03-07T20:32:10.263Z,98915.85
2018-03-07T20:34:38.609Z,98923.68
2018-03-07T20:37:06.935Z,98923.28
2018-03-07T20:39:35.305Z,98923.59
2018-03-07T20:42:03.646Z,98929.89
2018-03-07T20:44:31.990Z,98933.80
2018-03-07T20:47:00.311Z,98937.87
2018-03-07T20:49:28.661Z,98931.78
2018-03-07T20:51:57.172Z,98933.64
2018-03-07T20:54:25.557Z,98941.53
2018-03-07T20:56:53.854Z,98945.23
2018-03-07T20:59:22.206Z,98943.43
2018-03-07T21:01:50.535Z,98948.52
2018-03-07T21:04:18.918Z,98947.86
2018-03-07T21:06:47.205Z,98948.63
2018-03-07T21:09:15.564Z,98953.16
2018-03-07T21:11:43.889Z,98948.36
2018-03-07T21:14:12.237Z,98943.48
2018-03-07T21:16:41.549Z,98956.40
2018-03-07T21:19:09.904Z,98950.59
2018-03-07T21:21:38.235Z,98959.17
2018-03-07T21:24:06.558Z,98956.10
2018-03-07T21:26:34.903Z,98956.53
2018-03-07T21:29:03.230Z,98958.67
2018-03-07T21:31:31.578Z,98962.48
2018-03-07T21:33:59.905Z,98962.92
2018-03-07T21:36:28.253Z,98961.34
2018-03-07T21:38:56.577Z,98964.68
2018-03-07T21:41:25.635Z,98962.30
2018-03-07T21:43:53.958Z,98968.27
2018-03-07T21:46:22.315Z,98971.78
2018-03-07T21:48:50.642Z,98967.29
2018-03-07T21:51:18.990Z,98973.28
2018-03-07T21:53:47.318Z,98973.40
2018-03-07T21:56:15.709Z,98972.34
2018-03-07T21:58:44.034Z,98972.64
2018-03-07T22:01:13.381Z,98976.22
2018-03-07T22:03:41.705Z,98975.24
2018-03-07T22:06:10.063Z,98975.24
2018-03-07T22:08:38.393Z,98976.98
2018-03-07T22:11:06.757Z,98972.22
2018-03-07T22:13:35.085Z,98974.30
2018-03-07T22:16:03.433Z,98971.67
2018-03-07T22:18:31.761Z,98969.53
2018-03-07T22:21:00.988Z,98965.89
2018-03-07T22:23:29.305Z,98971.58
2018-03-07T22:25:57.654Z,98974.12
2018-03-07T22:28:25.985Z,98978.00
2018-03-07T22:30:54.330Z,98976.81
2018-03-07T22:33:22.658Z,98980.63
2018-03-07T22:35:51.003Z,98977.66
2018-03-07T22:38:19.355Z,98971.70
2018-03-07T22:40:48.621Z,98971.36
2018-03-07T22:43:16.942Z,98972.56
2018-03-07T22:45:45.286Z,98978.27
2018-03-07T22:48:13.611Z,98977.51
2018-03-07T22:50:41.959Z,98981.27
2018-03-07T22:53:10.270Z,98981.42
2018-03-07T22:55:38.614Z,98983.23
2018-03-07T22:58:06.934Z,98983.75
2018-03-07T23:00:41.034Z,98982.52
2018-03-07T23:03:09.353Z,98977.11
2018-03-07T23:05:37.693Z,98984.12
2018-03-07T23:08:06.014Z,98985.91
2018-03-07T23:10:34.362Z,98986.21
2018-03-07T23:13:02.673Z,98983.34
2018-03-07T23:15:31.017Z,98989.02
2018-03-07T23:17:59.338Z,98991.90
2018-03-07T23:20:27.682Z,98993.59
2018-03-07T23:22:55.999Z,98994.95
2018-03-07T23:25:24.342Z,99000.59
2018-03-07T23:27:52.657Z,98996.80
2018-03-07T23:30:21.002Z,98996.77
2018-03-07T23:32:49.330Z,98996.03
2018-03-07T23:35:17.647Z,99001.00
2018-03-07T23:37:45.990Z,99004.23
2018-03-07T23:40:14.313Z,99005.66
2018-03-07T23:42:42.658Z,99008.27
2018-03-07T23:45:10.984Z,99010.55
2018-03-07T23:47:39.325Z,99006.84
2018-03-07T23:50:07.646Z,99014.17
2018-03-07T23:52:35.989Z,99013.97
2018-03-07T23:55:04.314Z,99023.75
2018-03-07T23:57:32.654Z,99019.36
